createdAt,value
2022-09-28T00:04:16.966Z,3.45
2022-09-28T00:09:18.727Z,5.33
2022-09-28T00:14:21.123Z,4.25
2022-09-28T00:19:23.018Z,3.75
2022-09-28T00:24:27.638Z,3.08
2022-09-28T00:29:32.050Z,2.22
2022-09-28T00:34:36.291Z,4.25
2022-09-28T00:39:41.212Z,3.13
2022-09-28T00:44:49.111Z,3.33
2022-09-28T00:50:00.037Z,3.92
2022-09-28T00:55:05.637Z,2.38
2022-09-28T01:00:08.461Z,4.57
2022-09-28T01:05:11.480Z,4.63
2022-09-28T01:10:14.275Z,3.22
2022-09-28T01:20:26.733Z,7.37
2022-09-28T01:25:47.814Z,5.75
2022-09-28T01:31:06.604Z,3.33
2022-09-28T01:36:19.299Z,3.15
2022-09-28T01:41:23.975Z,5.57
2022-09-28T01:46:31.799Z,4.93
2022-09-28T01:51:43.723Z,4.20
2022-09-28T01:56:54.463Z,4.22
2022-09-28T02:02:05.510Z,4.40
2022-09-28T02:07:15.483Z,4.43
2022-09-28T02:12:31.109Z,4.82
2022-09-28T02:17:34.032Z,6.38
2022-09-28T02:22:44.096Z,4.95
2022-09-28T02:27:57.578Z,6.72
2022-09-28T02:33:07.368Z,4.45
2022-09-28T02:38:13.828Z,4.20
2022-09-28T02:43:31.040Z,6.30
2022-09-28T02:48:55.757Z,4.05
2022-09-28T02:54:29.528Z,2.78
2022-09-28T02:59:59.083Z,4.50
2022-09-28T03:05:13.296Z,5.55
2022-09-28T03:10:30.889Z,3.05
2022-09-28T03:15:35.343Z,3.75
2022-09-28T03:20:37.378Z,4.40
2022-09-28T03:25:39.230Z,5.93
2022-09-28T03:30:41.646Z,3.28
2022-09-28T03:35:48.027Z,4.18
2022-09-28T03:40:59.815Z,5.50
2022-09-28T03:46:05.219Z,9.18
2022-09-28T03:51:13.349Z,6.40
2022-09-28T03:56:16.022Z,5.88
2022-09-28T04:01:18.184Z,4.60
2022-09-28T04:06:23.446Z,5.07
2022-09-28T04:16:27.719Z,4.35
2022-09-28T04:21:50.554Z,5.03
2022-09-28T04:26:52.578Z,5.43
2022-09-28T04:31:56.251Z,4.72
2022-09-28T04:37:18.228Z,5.00
2022-09-28T04:42:19.914Z,5.38
2022-09-28T04:47:24.170Z,4.43
2022-09-28T04:52:51.959Z,4.57
2022-09-28T04:57:53.877Z,6.50
2022-09-28T05:02:55.961Z,6.20
2022-09-28T05:08:30.125Z,5.00
2022-09-28T05:13:35.694Z,7.53
2022-09-28T05:18:37.539Z,3.15
2022-09-28T05:23:47.382Z,6.13
2022-09-28T05:28:49.250Z,3.60
2022-09-28T05:34:09.300Z,3.67
2022-09-28T05:39:11.298Z,8.48
2022-09-28T05:44:13.457Z,4.63
2022-09-28T05:49:17.329Z,5.43
2022-09-28T05:54:19.147Z,3.25
2022-09-28T05:59:22.321Z,3.85
2022-09-28T06:04:24.697Z,3.92
2022-09-28T06:09:26.441Z,6.65
2022-09-28T06:14:45.708Z,2.97
2022-09-28T06:19:48.619Z,3.05
2022-09-28T06:25:01.137Z,4.85
2022-09-28T06:30:03.540Z,3.58
2022-09-28T06:35:05.984Z,4.20
2022-09-28T06:40:08.173Z,3.37
2022-09-28T06:45:11.094Z,4.75
2022-09-28T06:50:19.314Z,2.78
2022-09-28T06:55:43.759Z,2.93
2022-09-28T07:00:47.239Z,4.63
2022-09-28T07:05:52.571Z,5.03
2022-09-28T07:11:15.166Z,4.03
2022-09-28T07:16:28.578Z,3.55
2022-09-28T07:21:32.062Z,2.80
2022-09-28T07:26:36.490Z,5.15
2022-09-28T07:32:01.826Z,3.05
2022-09-28T07:37:32.757Z,3.13
2022-09-28T07:42:36.178Z,3.27
2022-09-28T07:47:38.237Z,3.15
2022-09-28T07:53:03.914Z,3.33
2022-09-28T07:58:15.539Z,2.25
2022-09-28T08:03:56.305Z,2.47
2022-09-28T08:08:59.885Z,2.08
2022-09-28T08:14:21.577Z,2.00
2022-09-28T08:20:00.517Z,1.75
2022-09-28T08:25:03.658Z,2.58
2022-09-28T08:30:06.119Z,2.10
2022-09-28T08:35:22.698Z,3.85
2022-09-28T08:40:59.747Z,2.03
2022-09-28T08:46:30.318Z,2.65
2022-09-28T08:52:03.181Z,4.43
2022-09-28T08:57:32.080Z,3.30
2022-09-28T09:02:39.652Z,4.97
2022-09-28T09:08:00.827Z,4.57
2022-09-28T09:13:20.959Z,3.08
2022-09-28T09:18:32.730Z,3.60
2022-09-28T09:23:55.420Z,3.30
2022-09-28T09:29:13.748Z,2.28
2022-09-28T09:34:35.869Z,3.63
2022-09-28T09:40:28.622Z,3.42
2022-09-28T09:46:04.157Z,3.50
2022-09-28T09:51:23.666Z,4.10
2022-09-28T09:56:41.181Z,5.05
2022-09-28T10:01:52.002Z,3.60
2022-09-28T10:07:34.764Z,3.63
2022-09-28T10:12:37.119Z,4.03
2022-09-28T10:17:39.426Z,3.43
2022-09-28T10:23:03.171Z,3.80
2022-09-28T10:28:07.503Z,5.15
2022-09-28T10:33:29.364Z,4.03
2022-09-28T10:38:33.614Z,4.90
2022-09-28T10:44:06.676Z,3.95
2022-09-28T10:49:18.567Z,4.78
2022-09-28T10:59:42.212Z,4.72
2022-09-28T11:05:22.754Z,4.78
2022-09-28T11:10:30.979Z,4.22
2022-09-28T11:15:43.099Z,4.37
2022-09-28T11:20:48.774Z,3.70
2022-09-28T11:26:06.762Z,4.88
2022-09-28T11:31:10.292Z,4.78
2022-09-28T11:37:02.577Z,4.00
2022-09-28T11:42:20.544Z,3.47
2022-09-28T11:48:01.289Z,4.68
2022-09-28T11:53:04.178Z,3.47
2022-09-28T11:58:09.884Z,3.80
2022-09-28T12:03:18.128Z,4.07
2022-09-28T12:08:27.397Z,3.92
2022-09-28T12:18:49.363Z,5.68
2022-09-28T12:24:22.070Z,5.57
2022-09-28T12:29:32.175Z,4.15
2022-09-28T12:34:33.874Z,7.05
2022-09-28T12:40:02.963Z,4.97
2022-09-28T12:45:27.661Z,5.15
2022-09-28T12:50:42.714Z,5.25
2022-09-28T12:56:20.918Z,5.28
2022-09-28T13:01:41.263Z,3.05
2022-09-28T13:06:51.454Z,3.47
2022-09-28T13:12:22.393Z,3.17
2022-09-28T13:17:56.026Z,3.60
2022-09-28T13:23:41.657Z,3.67
2022-09-28T13:28:46.975Z,5.15
2022-09-28T13:33:50.383Z,7.45
2022-09-28T13:38:53.696Z,12.07
2022-09-28T13:44:13.867Z,5.38
2022-09-28T13:49:24.622Z,4.60
2022-09-28T13:54:44.935Z,5.30
2022-09-28T13:59:53.898Z,4.38
2022-09-28T14:05:05.474Z,6.18
2022-09-28T14:10:20.930Z,5.22
2022-09-28T14:15:28.871Z,4.63
2022-09-28T14:20:31.426Z,4.07
2022-09-28T14:25:40.952Z,5.80
2022-09-28T14:30:43.204Z,4.97
2022-09-28T14:35:50.306Z,5.50
2022-09-28T14:41:12.477Z,7.22
2022-09-28T14:46:14.235Z,5.97
2022-09-28T14:51:26.167Z,6.63
2022-09-28T14:56:32.803Z,6.88
2022-09-28T15:01:36.248Z,7.35
2022-09-28T15:06:50.617Z,5.35
2022-09-28T15:11:57.482Z,6.22
2022-09-28T15:17:02.841Z,5.95
2022-09-28T15:22:15.402Z,7.20
2022-09-28T15:27:18.967Z,11.07
2022-09-28T15:32:25.762Z,8.82
2022-09-28T15:37:33.158Z,9.00
2022-09-28T15:42:36.723Z,7.85
2022-09-28T15:47:40.073Z,7.00
2022-09-28T15:57:49.201Z,8.50
2022-09-28T16:03:06.840Z,7.97
2022-09-28T16:08:24.581Z,8.80
2022-09-28T16:13:26.613Z,6.80
2022-09-28T16:18:30.686Z,7.15
2022-09-28T16:23:34.235Z,8.10
2022-09-28T16:28:38.617Z,5.90
2022-09-28T16:33:54.039Z,9.75
2022-09-28T16:38:56.267Z,8.65
2022-09-28T16:44:02.088Z,8.93
2022-09-28T16:49:06.170Z,11.15
2022-09-28T16:54:37.553Z,7.78
2022-09-28T16:59:39.414Z,8.00
2022-09-28T17:04:43.654Z,8.60
2022-09-28T17:09:48.883Z,7.75
2022-09-28T17:14:50.564Z,11.77
2022-09-28T17:19:52.201Z,8.50
2022-09-28T17:24:53.870Z,9.52
2022-09-28T17:29:55.597Z,9.80
2022-09-28T17:35:22.598Z,10.02
2022-09-28T17:40:28.278Z,9.50
2022-09-28T17:45:31.288Z,8.07
2022-09-28T17:50:34.910Z,7.60
2022-09-28T17:55:38.884Z,8.35
2022-09-28T18:00:40.844Z,6.75
2022-09-28T18:05:44.084Z,6.07
2022-09-28T18:10:48.900Z,9.07
2022-09-28T18:15:54.901Z,7.30
2022-09-28T18:20:56.632Z,7.45
2022-09-28T18:25:59.462Z,9.57
2022-09-28T18:36:08.544Z,8.70
2022-09-28T18:41:15.778Z,9.18
2022-09-28T18:46:18.737Z,11.32
2022-09-28T18:56:22.679Z,12.63
2022-09-28T19:01:32.092Z,13.38
2022-09-28T19:06:36.818Z,10.98
2022-09-28T19:11:38.673Z,7.20
2022-09-28T19:16:40.907Z,8.65
2022-09-28T19:21:43.379Z,11.20
2022-09-28T19:26:46.506Z,10.30
2022-09-28T19:31:49.590Z,6.45
2022-09-28T19:36:51.317Z,8.50
2022-09-28T19:41:53.087Z,7.97
2022-09-28T19:46:59.735Z,8.73
2022-09-28T19:52:12.877Z,10.68
2022-09-28T19:57:16.369Z,10.38
2022-09-28T20:02:18.098Z,9.23
2022-09-28T20:07:20.626Z,8.50
2022-09-28T20:12:22.435Z,9.43
2022-09-28T20:17:24.146Z,9.45
2022-09-28T20:22:25.878Z,9.50
2022-09-28T20:27:27.858Z,9.73
2022-09-28T20:32:33.463Z,10.95
2022-09-28T20:37:35.234Z,11.25
2022-09-28T20:42:42.051Z,9.43
2022-09-28T20:47:43.774Z,9.88
2022-09-28T20:52:45.542Z,8.20
2022-09-28T20:57:47.389Z,8.60
2022-09-28T21:02:52.916Z,7.78
2022-09-28T21:07:54.927Z,7.88
2022-09-28T21:12:56.655Z,12.27
2022-09-28T21:17:58.368Z,8.73
2022-09-28T21:23:00.338Z,7.75
2022-09-28T21:28:02.030Z,8.10
2022-09-28T21:33:03.963Z,9.48
2022-09-28T21:38:05.650Z,8.70
2022-09-28T21:43:07.465Z,8.10
2022-09-28T21:48:09.311Z,8.75
2022-09-28T21:53:11.293Z,8.27
2022-09-28T21:58:12.963Z,7.13
2022-09-28T22:03:15.803Z,7.50
2022-09-28T22:08:18.303Z,8.25
2022-09-28T22:13:20.007Z,8.38
2022-09-28T22:18:21.767Z,6.32
2022-09-28T22:23:23.486Z,7.57
2022-09-28T22:28:25.323Z,5.18
2022-09-28T22:33:27.455Z,5.68
2022-09-28T22:38:31.793Z,8.20
2022-09-28T22:43:34.034Z,10.40
2022-09-28T22:48:36.164Z,12.60
2022-09-28T22:53:38.263Z,10.13
2022-09-28T22:58:40.029Z,8.97
2022-09-28T23:03:42.545Z,7.00
2022-09-28T23:08:45.536Z,7.53
2022-09-28T23:18:55.870Z,6.13
2022-09-28T23:24:00.951Z,5.63
2022-09-28T23:29:03.502Z,5.38
2022-09-28T23:34:06.697Z,5.63
2022-09-28T23:39:10.125Z,8.90
2022-09-28T23:44:11.839Z,5.72
2022-09-28T23:49:13.541Z,3.80
2022-09-28T23:54:15.931Z,4.72
2022-09-28T23:59:17.773Z,5.40
